Time;durP1;ratioP1;P1;durP2;ratioP2;P2;SDS_P1;SDS_P2;PMS_P1;PMS_P2;Temp;Humidity;BMP_temperature;BMP_pressure;BME280_temperature;BME280_humidity;BME280_pressure;Samples;Min_cycle;Max_cycle;Signal;HPM_P1;HPM_P2
2021/06/27 00:01:02;;;;;;;3.23;1.93;;;;;;;15.96;86.20;101381.25;5093238;28;20436;-71
2021/06/27 00:03:28;;;;;;;2.80;1.53;;;;;;;15.84;86.52;101386.53;5093282;28;20443;-71
2021/06/27 00:05:56;;;;;;;2.07;1.40;;;;;;;15.85;86.92;101382.69;5093257;28;20453;-71
2021/06/27 00:08:22;;;;;;;1.10;1.00;;;;;;;15.87;86.19;101392.16;5093260;28;20444;-71
2021/06/27 00:10:51;;;;;;;1.03;0.97;;;;;;;15.92;86.07;101393.16;5093064;28;20480;-71
2021/06/27 00:13:19;;;;;;;2.13;1.30;;;;;;;15.91;85.65;101383.34;5093135;28;20483;-70
2021/06/27 00:15:49;;;;;;;2.50;1.67;;;;;;;15.83;86.82;101388.44;5094490;28;20444;-70
2021/06/27 00:18:17;;;;;;;1.93;1.77;;;;;;;15.71;87.10;101385.50;5093164;28;20444;-70
2021/06/27 00:20:46;;;;;;;1.87;1.23;;;;;;;15.67;87.56;101394.66;5093103;28;20447;-70
2021/06/27 00:23:15;;;;;;;1.77;1.37;;;;;;;15.73;84.49;101391.47;5092731;28;20988;-70
2021/06/27 00:25:42;;;;;;;1.87;1.13;;;;;;;15.61;83.92;101392.03;5093037;28;20444;-70
2021/06/27 00:28:10;;;;;;;2.27;1.30;;;;;;;15.59;83.36;101391.56;5093078;28;20780;-70
2021/06/27 00:30:39;;;;;;;2.53;1.30;;;;;;;15.54;83.80;101388.97;5092941;28;20484;-70
2021/06/27 00:33:07;;;;;;;1.33;1.23;;;;;;;15.49;84.65;101377.34;5092960;28;20456;-70
2021/06/27 00:35:34;;;;;;;2.60;1.40;;;;;;;15.39;87.06;101378.44;5092989;28;20486;-70
2021/06/27 00:38:00;;;;;;;1.87;1.20;;;;;;;15.44;87.41;101378.31;5092930;28;20812;-70
2021/06/27 00:40:29;;;;;;;1.20;1.10;;;;;;;15.41;87.70;101369.97;5092951;28;20439;-70
2021/06/27 00:42:56;;;;;;;1.97;1.40;;;;;;;15.31;88.59;101365.56;5092838;28;20926;-70
2021/06/27 00:45:25;;;;;;;1.83;1.13;;;;;;;15.43;88.18;101373.97;5093203;28;20436;-70
2021/06/27 00:47:54;;;;;;;2.17;1.60;;;;;;;15.50;87.43;101379.00;5096716;28;20441;-70
2021/06/27 00:50:24;;;;;;;1.50;1.13;;;;;;;15.45;88.05;101371.75;5096661;28;20519;-70
2021/06/27 00:52:52;;;;;;;2.63;1.67;;;;;;;15.47;87.66;101371.41;5096601;28;20460;-70
2021/06/27 00:55:19;;;;;;;1.33;1.20;;;;;;;15.47;87.52;101372.22;5096612;28;20444;-70
2021/06/27 00:57:47;;;;;;;2.03;1.80;;;;;;;15.47;87.06;101379.63;5096549;28;20436;-70
2021/06/27 01:00:17;;;;;;;1.90;1.23;;;;;;;15.46;87.57;101375.28;5096495;28;20443;-70
2021/06/27 01:02:45;;;;;;;1.57;1.20;;;;;;;15.39;87.98;101373.78;5096381;28;20456;-70
2021/06/27 01:05:16;;;;;;;1.43;1.07;;;;;;;15.33;88.45;101369.59;5103044;28;20441;-70
2021/06/27 01:07:43;;;;;;;3.77;1.90;;;;;;;15.26;86.32;101366.50;5096140;28;20906;-70
2021/06/27 01:10:11;;;;;;;2.97;1.60;;;;;;;15.24;84.43;101363.28;5096266;28;20476;-72
2021/06/27 01:12:38;;;;;;;1.53;1.33;;;;;;;15.17;84.04;101370.31;5095820;28;20845;-69
2021/06/27 01:15:06;;;;;;;2.53;1.57;;;;;;;15.13;84.14;101370.13;5096225;28;20443;-68
2021/06/27 01:17:33;;;;;;;1.40;1.30;;;;;;;15.02;84.32;101374.22;5096184;28;20436;-71
2021/06/27 01:19:59;;;;;;;3.00;1.43;;;;;;;15.03;85.46;101360.28;5096103;28;20486;-70
2021/06/27 01:22:27;;;;;;;2.13;1.60;;;;;;;15.05;87.03;101363.50;5096035;28;20471;-70
2021/06/27 01:24:54;;;;;;;1.60;1.33;;;;;;;15.08;87.46;101364.78;5096028;28;20447;-70
2021/06/27 01:27:20;;;;;;;3.67;1.40;;;;;;;15.09;88.13;101363.66;5096029;28;20440;-70
2021/06/27 01:29:47;;;;;;;2.67;1.73;;;;;;;15.11;88.26;101356.78;5095827;28;20475;-70
2021/06/27 01:32:14;;;;;;;1.30;1.13;;;;;;;15.14;88.10;101350.72;5095790;28;20467;-70
2021/06/27 01:34:43;;;;;;;1.47;1.37;;;;;;;15.11;88.43;101348.59;5095936;28;20448;-70
2021/06/27 01:37:10;;;;;;;1.20;1.03;;;;;;;15.04;88.88;101341.97;5095781;28;20429;-70
2021/06/27 01:39:39;;;;;;;3.70;1.30;;;;;;;15.05;88.83;101346.31;5095459;28;20814;-70
2021/06/27 01:42:06;;;;;;;2.73;1.30;;;;;;;15.01;88.92;101334.44;5095651;28;20456;-70
2021/06/27 01:44:33;;;;;;;4.37;1.30;;;;;;;14.89;89.26;101330.34;5095653;28;20452;-70
2021/06/27 01:46:59;;;;;;;2.00;1.43;;;;;;;14.95;88.89;101331.00;5095576;28;20470;-70
2021/06/27 01:49:26;;;;;;;2.37;1.20;;;;;;;14.91;88.71;101324.56;5095211;28;20818;-70
2021/06/27 01:51:54;;;;;;;2.00;1.00;;;;;;;14.91;88.35;101330.03;5095434;28;20804;-69
2021/06/27 01:54:21;;;;;;;2.33;1.30;;;;;;;14.89;88.40;101326.81;5095503;28;20428;-69
2021/06/27 01:56:49;;;;;;;1.27;1.17;;;;;;;14.84;88.92;101344.13;5095113;28;20447;-70
2021/06/27 01:59:15;;;;;;;1.33;1.23;;;;;;;14.85;89.10;101342.19;5095378;28;20445;-70
2021/06/27 02:01:43;;;;;;;3.20;1.67;;;;;;;14.87;88.89;101331.75;5094918;28;20980;-69
2021/06/27 02:04:11;;;;;;;1.37;1.27;;;;;;;14.85;87.57;101332.06;5095267;28;20441;-69
2021/06/27 02:06:41;;;;;;;1.83;1.40;;;;;;;14.73;85.46;101325.56;5095206;28;20432;-69
2021/06/27 02:09:09;;;;;;;1.10;1.00;;;;;;;14.68;85.05;101331.97;5094941;28;20421;-69
2021/06/27 02:11:36;;;;;;;1.70;1.23;;;;;;;14.59;84.65;101328.38;5094749;28;20488;-69
2021/06/27 02:14:05;;;;;;;1.57;1.17;;;;;;;14.53;85.53;101324.97;5095066;28;20444;-70
2021/06/27 02:16:32;;;;;;;1.23;1.10;;;;;;;14.54;84.82;101326.56;5095077;28;20451;-70
2021/06/27 02:18:59;;;;;;;2.10;1.33;;;;;;;14.43;87.26;101327.88;5094935;28;20444;-69
2021/06/27 02:21:28;;;;;;;2.03;1.27;;;;;;;14.29;89.85;101327.94;5094843;28;20461;-70
2021/06/27 02:23:55;;;;;;;1.67;1.23;;;;;;;14.23;90.72;101323.72;5094912;28;20451;-70
2021/06/27 02:26:23;;;;;;;1.83;1.60;;;;;;;14.28;90.91;101333.69;5094867;28;20451;-69
2021/06/27 02:28:49;;;;;;;5.30;1.80;;;;;;;14.41;90.30;101334.78;5094807;28;20441;-69
2021/06/27 02:31:19;;;;;;;4.73;2.13;;;;;;;14.44;89.94;101336.88;5094604;28;20491;-70
2021/06/27 02:33:45;;;;;;;3.07;1.70;;;;;;;14.48;90.04;101333.28;5094788;28;20451;-70
2021/06/27 02:36:12;;;;;;;2.03;1.40;;;;;;;14.26;91.41;101330.50;5094658;28;20448;-69
2021/06/27 02:38:39;;;;;;;3.10;1.93;;;;;;;14.25;91.35;101326.13;5094617;28;20445;-70
2021/06/27 02:41:09;;;;;;;3.00;2.57;;;;;;;14.16;92.16;101319.78;5094190;28;20444;-70
2021/06/27 02:43:36;;;;;;;5.53;1.60;;;;;;;14.29;91.04;101324.41;5094222;28;20432;-70
2021/06/27 02:46:02;;;;;;;2.67;1.60;;;;;;;14.28;90.75;101323.59;5094448;28;20800;-70
2021/06/27 02:48:30;;;;;;;1.40;1.10;;;;;;;14.29;90.85;101325.22;5094441;28;20464;-70
2021/06/27 02:50:57;;;;;;;3.13;1.43;;;;;;;14.28;91.10;101312.69;5094134;28;20491;-70
2021/06/27 02:53:25;;;;;;;1.77;1.47;;;;;;;14.25;91.06;101316.03;5094249;28;20441;-70
2021/06/27 02:56:07;;;;;;;4.10;1.70;;;;;;;14.19;91.35;101319.19;5094264;28;20444;-70
2021/06/27 02:58:34;;;;;;;1.83;1.30;;;;;;;14.21;91.11;101308.78;5094355;28;20502;-70
2021/06/27 03:01:00;;;;;;;3.00;1.63;;;;;;;14.22;91.12;101313.94;5100884;28;20440;-70
2021/06/27 03:03:27;;;;;;;1.77;1.20;;;;;;;14.19;89.40;101308.28;5093914;28;20930;-70
2021/06/27 03:05:55;;;;;;;1.20;1.03;;;;;;;14.13;87.71;101305.69;5093790;28;20968;-70
2021/06/27 03:08:21;;;;;;;1.43;1.17;;;;;;;14.09;86.53;101306.63;5093436;28;20443;-70
2021/06/27 03:10:48;;;;;;;3.20;2.40;;;;;;;14.02;86.47;101309.75;5093820;28;20488;-70
2021/06/27 03:13:14;;;;;;;2.17;1.23;;;;;;;13.86;87.35;101308.47;5093935;28;20449;-70
2021/06/27 03:15:40;;;;;;;3.93;1.67;;;;;;;13.89;87.54;101314.09;5093920;28;20441;-71
2021/06/27 03:18:07;;;;;;;2.40;1.77;;;;;;;13.89;87.04;101316.81;5093922;28;20457;-70
2021/06/27 03:20:33;;;;;;;1.87;1.00;;;;;;;13.88;87.60;101314.41;5093874;28;20444;-71
2021/06/27 03:23:01;;;;;;;2.40;1.17;;;;;;;13.95;89.70;101322.19;5093749;28;20469;-71
2021/06/27 03:25:29;;;;;;;1.73;1.30;;;;;;;13.99;90.97;101313.09;5093793;28;20455;-71
2021/06/27 03:27:55;;;;;;;1.97;1.70;;;;;;;14.00;91.62;101305.72;5093736;28;20440;-70
2021/06/27 03:30:23;;;;;;;2.20;1.23;;;;;;;13.94;92.64;101315.09;5093678;28;20480;-71
2021/06/27 03:32:49;;;;;;;1.93;1.40;;;;;;;14.03;92.11;101316.00;5093644;28;20460;-71
2021/06/27 03:35:15;;;;;;;3.10;1.70;;;;;;;14.08;91.89;101313.19;5093654;28;20822;-71
2021/06/27 03:37:46;;;;;;;5.10;1.80;;;;;;;14.17;91.84;101315.97;5093346;28;20791;-71
2021/06/27 03:40:16;;;;;;;2.10;1.53;;;;;;;14.26;91.90;101316.88;5093638;28;20482;-71
2021/06/27 03:42:42;;;;;;;1.83;1.20;;;;;;;14.30;91.83;101320.59;5093481;28;20518;-70
2021/06/27 03:45:09;;;;;;;1.50;1.10;;;;;;;14.34;91.72;101319.66;5093492;28;20443;-71
2021/06/27 03:47:36;;;;;;;1.70;1.40;;;;;;;14.32;92.35;101316.41;5093132;28;20820;-71
2021/06/27 03:50:02;;;;;;;1.67;1.00;;;;;;;14.29;92.54;101329.84;5093343;28;20451;-70
2021/06/27 03:52:28;;;;;;;3.93;1.90;;;;;;;14.39;92.30;101330.44;5093456;28;20460;-71
2021/06/27 03:54:55;;;;;;;5.63;2.20;;;;;;;14.52;91.93;101328.81;5093042;28;20440;-71
2021/06/27 03:57:23;;;;;;;1.57;1.30;;;;;;;14.46;91.71;101329.19;5093134;28;20431;-70
2021/06/27 03:59:49;;;;;;;2.20;1.57;;;;;;;14.44;89.97;101334.16;5093413;28;20452;-71
2021/06/27 04:02:15;;;;;;;2.03;1.63;;;;;;;14.50;87.80;101333.75;5093178;28;20495;-70
2021/06/27 04:04:42;;;;;;;2.07;1.57;;;;;;;14.46;87.78;101334.66;5092972;28;20946;-70
2021/06/27 04:07:08;;;;;;;2.20;1.27;;;;;;;14.48;87.01;101338.72;5093290;28;20805;-71
2021/06/27 04:09:35;;;;;;;2.03;1.23;;;;;;;14.48;87.39;101330.53;5093266;28;20436;-69
2021/06/27 04:12:01;;;;;;;1.90;1.50;;;;;;;14.53;87.48;101329.63;5092781;28;20484;-69
2021/06/27 04:14:29;;;;;;;2.80;2.17;;;;;;;14.49;91.16;101336.81;5093208;28;20436;-69
2021/06/27 04:16:55;;;;;;;2.40;1.47;;;;;;;14.44;93.67;101334.16;5093184;28;20781;-69
2021/06/27 04:19:22;;;;;;;2.90;1.90;;;;;;;14.62;93.25;101333.22;5093135;28;20448;-69
2021/06/27 04:21:48;;;;;;;3.80;2.40;;;;;;;14.76;93.34;101328.50;5097208;28;20460;-69
2021/06/27 04:24:15;;;;;;;2.47;1.47;;;;;;;14.91;93.40;101335.47;5096863;28;20930;-69
2021/06/27 04:26:41;;;;;;;2.43;1.80;;;;;;;15.02;93.63;101336.84;5096867;28;20968;-69
2021/06/27 04:29:11;;;;;;;4.13;2.33;;;;;;;15.14;93.56;101344.47;5097115;28;20437;-69
2021/06/27 04:31:39;;;;;;;3.10;1.97;;;;;;;15.25;92.88;101348.50;5096631;28;20486;-70
2021/06/27 04:34:06;;;;;;;1.73;1.57;;;;;;;15.36;92.88;101349.88;5097058;28;20453;-70
2021/06/27 04:36:32;;;;;;;2.40;1.93;;;;;;;15.49;93.32;101344.59;5097034;28;20467;-69
2021/06/27 04:38:59;;;;;;;2.17;1.67;;;;;;;15.58;93.52;101349.00;5096936;28;20446;-69
2021/06/27 04:41:25;;;;;;;2.90;1.90;;;;;;;15.66;93.18;101347.41;5096818;28;20479;-71
2021/06/27 04:43:52;;;;;;;2.60;1.60;;;;;;;15.73;93.74;101339.59;5096887;28;20443;-71
2021/06/27 04:46:19;;;;;;;3.17;1.83;;;;;;;15.82;93.30;101334.13;5096792;28;20444;-71
2021/06/27 04:48:46;;;;;;;2.30;1.67;;;;;;;15.90;93.24;101338.81;5096721;28;20447;-71
2021/06/27 04:51:13;;;;;;;1.80;1.40;;;;;;;15.98;93.71;101337.22;5096549;28;20484;-71
2021/06/27 04:53:39;;;;;;;2.23;1.73;;;;;;;16.08;92.35;101339.66;5096675;28;20447;-71
2021/06/27 04:56:06;;;;;;;1.83;1.37;;;;;;;16.18;91.78;101336.59;5102262;28;20427;-71
2021/06/27 04:58:32;;;;;;;3.10;2.30;;;;;;;16.27;90.24;101334.69;5097104;28;20448;-71
2021/06/27 05:00:59;;;;;;;2.47;2.13;;;;;;;16.34;89.58;101336.94;5096406;28;20448;-71
2021/06/27 05:03:25;;;;;;;3.77;2.40;;;;;;;16.42;89.90;101338.06;5096528;28;20444;-71
2021/06/27 05:05:53;;;;;;;2.20;1.70;;;;;;;16.53;90.22;101340.16;5096442;28;20887;-72
2021/06/27 05:08:19;;;;;;;2.27;1.30;;;;;;;16.63;90.90;101349.97;5096387;28;20444;-71
2021/06/27 05:10:46;;;;;;;4.13;2.37;;;;;;;16.72;91.35;101341.75;5096102;28;20491;-71
2021/06/27 05:13:12;;;;;;;3.37;1.83;;;;;;;16.83;91.22;101343.06;5096296;28;20468;-71
2021/06/27 05:15:39;;;;;;;2.73;2.23;;;;;;;16.90;90.41;101341.41;5096234;28;20448;-71
2021/06/27 05:18:05;;;;;;;3.57;2.17;;;;;;;16.98;90.60;101342.53;5096199;28;20459;-71
2021/06/27 05:20:32;;;;;;;1.80;1.27;;;;;;;17.07;89.81;101350.72;5095863;28;20954;-71
2021/06/27 05:23:00;;;;;;;2.20;1.83;;;;;;;17.17;88.74;101353.09;5095753;28;20985;-71
2021/06/27 05:25:26;;;;;;;2.30;2.00;;;;;;;17.28;87.71;101345.34;5096071;28;20436;-71
2021/06/27 05:27:53;;;;;;;2.27;1.60;;;;;;;17.37;87.73;101351.59;5095694;28;20961;-71
2021/06/27 05:30:20;;;;;;;1.20;1.10;;;;;;;17.49;87.09;101348.19;5096001;28;20436;-70
2021/06/27 05:32:46;;;;;;;3.37;2.10;;;;;;;17.61;86.21;101345.53;5095169;28;20825;-69
2021/06/27 05:35:13;;;;;;;1.90;1.70;;;;;;;17.69;86.47;101335.66;5095882;28;20467;-68
2021/06/27 05:37:39;;;;;;;2.60;1.63;;;;;;;17.77;85.94;101332.91;5095569;28;20440;-70
2021/06/27 05:40:08;;;;;;;3.33;1.57;;;;;;;17.86;84.51;101335.59;5095733;28;20436;-69
2021/06/27 05:42:35;;;;;;;3.27;2.10;;;;;;;17.92;83.02;101339.75;5095862;28;20463;-68
2021/06/27 05:45:01;;;;;;;1.60;1.50;;;;;;;18.03;82.53;101332.75;5095813;28;20441;-68
2021/06/27 05:47:28;;;;;;;2.50;1.23;;;;;;;18.08;81.44;101335.28;5095896;28;20440;-68
2021/06/27 05:49:54;;;;;;;2.30;1.73;;;;;;;18.18;81.10;101345.06;5095563;28;20444;-69
2021/06/27 05:52:20;;;;;;;1.50;1.30;;;;;;;18.25;81.87;101341.78;5095376;28;20480;-69
2021/06/27 05:54:47;;;;;;;5.37;2.00;;;;;;;18.35;81.02;101346.88;5095453;28;20441;-69
2021/06/27 05:57:15;;;;;;;2.13;1.70;;;;;;;18.46;80.42;101350.81;5095500;28;20444;-68
2021/06/27 05:59:41;;;;;;;4.53;1.70;;;;;;;18.58;80.21;101341.81;5095380;28;20440;-68
2021/06/27 06:02:08;;;;;;;1.67;1.57;;;;;;;18.65;80.00;101342.91;5095247;28;20460;-68
2021/06/27 06:04:35;;;;;;;4.67;2.10;;;;;;;18.74;80.12;101347.53;5095414;28;20436;-68
2021/06/27 06:07:01;;;;;;;2.23;1.80;;;;;;;18.81;79.85;101345.03;5095274;28;20866;-68
2021/06/27 06:09:27;;;;;;;2.70;1.67;;;;;;;18.86;79.36;101348.38;5095240;28;20809;-68
2021/06/27 06:11:54;;;;;;;2.10;1.40;;;;;;;18.93;78.80;101338.78;5094767;28;20491;-68
2021/06/27 06:14:22;;;;;;;2.97;1.50;;;;;;;18.97;78.57;101339.72;5095095;28;20440;-68
2021/06/27 06:16:48;;;;;;;2.80;1.90;;;;;;;19.03;77.02;101349.31;5096337;28;20440;-68
2021/06/27 06:19:17;;;;;;;1.80;1.50;;;;;;;19.09;77.35;101342.50;5095011;28;20452;-68
2021/06/27 06:21:44;;;;;;;2.43;1.60;;;;;;;19.17;77.27;101352.59;5094875;28;20465;-68
2021/06/27 06:24:10;;;;;;;1.93;1.73;;;;;;;19.22;76.63;101343.31;5094936;28;20809;-68
2021/06/27 06:26:37;;;;;;;1.63;1.27;;;;;;;19.30;75.08;101353.38;5094917;28;20441;-68
2021/06/27 06:29:04;;;;;;;1.93;1.60;;;;;;;19.42;74.19;101348.72;5094757;28;20444;-68
2021/06/27 06:31:32;;;;;;;4.30;1.90;;;;;;;19.53;73.82;101345.53;5094640;28;20484;-69
2021/06/27 06:33:59;;;;;;;1.97;1.50;;;;;;;19.62;75.08;101349.00;5094717;28;20812;-68
2021/06/27 06:36:25;;;;;;;3.47;2.60;;;;;;;19.74;74.21;101345.41;5094640;28;20440;-68
2021/06/27 06:38:51;;;;;;;3.20;1.90;;;;;;;19.83;73.30;101354.34;5094669;28;20448;-68
2021/06/27 06:41:18;;;;;;;2.37;1.90;;;;;;;19.88;72.64;101352.19;5094615;28;20471;-68
2021/06/27 06:43:45;;;;;;;1.77;1.30;;;;;;;19.96;72.53;101358.69;5093190;28;20953;-68
2021/06/27 06:46:11;;;;;;;2.43;2.07;;;;;;;20.02;72.93;101360.06;5094460;28;20440;-69
2021/06/27 06:48:39;;;;;;;2.07;1.87;;;;;;;20.08;72.92;101350.44;5094158;28;20960;-68
2021/06/27 06:51:06;;;;;;;2.10;1.60;;;;;;;20.16;73.02;101345.94;5094178;28;20488;-68
2021/06/27 06:53:33;;;;;;;2.87;1.87;;;;;;;20.22;71.89;101346.50;5099875;28;20500;-68
2021/06/27 06:55:59;;;;;;;3.50;1.90;;;;;;;20.31;72.26;101338.91;5095935;28;20432;-69
2021/06/27 06:58:29;;;;;;;2.63;1.80;;;;;;;20.37;71.29;101346.59;5094379;28;20452;-69
2021/06/27 07:00:55;;;;;;;2.20;1.83;;;;;;;20.45;71.43;101347.56;5094103;28;20459;-70
2021/06/27 07:03:23;;;;;;;2.23;1.87;;;;;;;20.55;67.08;101351.84;5094194;28;20436;-69
2021/06/27 07:05:51;;;;;;;2.00;1.50;;;;;;;20.64;66.63;101347.78;5093833;28;20945;-69
2021/06/27 07:08:17;;;;;;;2.27;1.80;;;;;;;20.72;63.96;101348.78;5093993;28;20448;-70
2021/06/27 07:10:44;;;;;;;2.60;1.93;;;;;;;20.72;63.26;101351.53;5093621;28;20949;-69
2021/06/27 07:13:10;;;;;;;2.80;1.97;;;;;;;20.77;63.87;101354.03;5093609;28;20484;-69
2021/06/27 07:15:37;;;;;;;2.03;1.40;;;;;;;20.90;65.17;101346.50;5093659;28;20941;-69
2021/06/27 07:18:03;;;;;;;2.10;1.60;;;;;;;20.94;65.75;101346.59;5093916;28;20443;-69
2021/06/27 07:20:30;;;;;;;2.33;1.93;;;;;;;21.00;66.83;101351.50;5093887;28;20441;-70
2021/06/27 07:22:58;;;;;;;3.17;2.00;;;;;;;21.07;63.88;101348.13;5093741;28;20461;-70
2021/06/27 07:25:24;;;;;;;2.30;1.83;;;;;;;21.11;61.23;101347.06;5093809;28;20440;-70
2021/06/27 07:27:51;;;;;;;2.10;1.57;;;;;;;21.09;61.57;101343.88;5093763;28;20448;-70
2021/06/27 07:30:17;;;;;;;2.70;1.63;;;;;;;21.21;60.37;101350.47;5093678;28;20444;-69
2021/06/27 07:32:44;;;;;;;1.60;1.50;;;;;;;21.28;61.17;101350.63;5093525;28;20487;-69
2021/06/27 07:35:11;;;;;;;1.60;1.50;;;;;;;21.36;62.24;101352.44;5093675;28;20444;-69
2021/06/27 07:37:37;;;;;;;2.10;1.40;;;;;;;21.38;62.11;101355.63;5093606;28;20437;-69
2021/06/27 07:40:07;;;;;;;2.83;2.27;;;;;;;21.45;62.69;101346.75;5093584;28;20436;-69
2021/06/27 07:42:33;;;;;;;1.53;1.40;;;;;;;21.49;61.14;101345.69;5093510;28;20453;-69
2021/06/27 07:45:00;;;;;;;1.77;1.40;;;;;;;21.56;59.57;101343.09;5093519;28;20444;-69
2021/06/27 07:47:26;;;;;;;2.00;1.40;;;;;;;21.67;58.06;101340.59;5093456;28;20451;-69
2021/06/27 07:49:53;;;;;;;2.33;1.20;;;;;;;21.83;59.37;101337.81;5093416;28;20447;-69
2021/06/27 07:52:19;;;;;;;4.10;1.47;;;;;;;21.92;59.51;101335.66;5093286;28;20492;-69
2021/06/27 07:54:45;;;;;;;6.40;1.73;;;;;;;21.96;59.34;101336.53;5093051;28;20443;-69
2021/06/27 07:57:13;;;;;;;2.13;1.93;;;;;;;21.99;58.82;101333.03;5093320;28;20862;-69
2021/06/27 07:59:40;;;;;;;2.20;1.60;;;;;;;22.02;60.00;101328.78;5093354;28;20443;-69
2021/06/27 08:02:06;;;;;;;2.43;1.50;;;;;;;22.14;60.54;101337.75;5093231;28;20452;-70
2021/06/27 08:04:33;;;;;;;2.70;1.47;;;;;;;22.13;60.78;101322.38;5093248;28;20448;-70
2021/06/27 08:06:59;;;;;;;1.50;1.20;;;;;;;22.21;58.90;101326.06;5093126;28;20821;-75
2021/06/27 08:09:26;;;;;;;2.00;1.80;;;;;;;22.25;58.65;101328.91;5093261;28;20441;-74
2021/06/27 08:11:52;;;;;;;2.07;1.60;;;;;;;22.23;60.31;101323.75;5092767;28;20527;-73
2021/06/27 08:14:20;;;;;;;2.00;1.43;;;;;;;22.13;59.12;101316.03;5093241;28;20491;-73
2021/06/27 08:16:46;;;;;;;3.70;1.50;;;;;;;22.15;59.49;101308.19;5093135;28;20441;-73
2021/06/27 08:19:13;;;;;;;2.53;1.60;;;;;;;22.31;60.15;101314.47;5093209;28;20452;-74
2021/06/27 08:21:39;;;;;;;2.30;1.40;;;;;;;22.38;58.50;101314.59;5092795;28;20460;-70
2021/06/27 08:24:06;;;;;;;3.73;1.70;;;;;;;22.47;59.92;101310.81;5093111;28;20467;-71
2021/06/27 08:26:33;;;;;;;1.33;1.23;;;;;;;22.58;59.22;101315.38;5093142;28;20463;-71
2021/06/27 08:29:02;;;;;;;2.27;1.37;;;;;;;22.68;59.66;101311.22;5093073;28;20451;-71
2021/06/27 08:31:31;;;;;;;1.50;1.37;;;;;;;22.69;58.39;101312.81;5092956;28;20464;-71
2021/06/27 08:33:58;;;;;;;2.53;1.90;;;;;;;22.79;59.56;101312.22;5092985;28;20480;-71
2021/06/27 08:36:24;;;;;;;1.67;1.57;;;;;;;22.82;59.35;101314.25;5093053;28;20546;-71
2021/06/27 08:38:51;;;;;;;2.83;1.50;;;;;;;22.83;59.92;101310.31;5092990;28;20444;-71
2021/06/27 08:41:18;;;;;;;1.73;1.43;;;;;;;22.81;56.20;101307.13;5091950;28;20969;-71
2021/06/27 08:43:45;;;;;;;1.00;0.90;;;;;;;23.00;54.59;101311.03;5092957;28;20436;-71
2021/06/27 08:46:14;;;;;;;1.23;1.00;;;;;;;23.07;54.25;101311.19;5092605;28;20441;-71
2021/06/27 08:48:43;;;;;;;2.90;1.40;;;;;;;23.19;53.35;101308.22;5092798;28;20493;-71
2021/06/27 08:51:11;;;;;;;1.10;0.90;;;;;;;23.25;53.74;101306.75;5092860;28;20451;-71
2021/06/27 08:53:42;;;;;;;2.07;1.60;;;;;;;23.23;55.64;101314.59;5099481;28;20492;-71
2021/06/27 08:56:09;;;;;;;1.30;1.20;;;;;;;23.30;54.84;101317.50;5092897;28;20507;-71
2021/06/27 08:58:37;;;;;;;1.70;1.20;;;;;;;23.26;54.61;101318.59;5092879;28;20440;-71
2021/06/27 09:01:05;;;;;;;1.90;1.27;;;;;;;23.33;53.43;101308.47;5092436;28;20934;-71
2021/06/27 09:03:32;;;;;;;1.77;1.30;;;;;;;23.40;53.51;101313.28;5092447;28;20440;-72
2021/06/27 09:06:01;;;;;;;2.13;1.50;;;;;;;23.48;52.68;101314.22;5092377;28;20982;-72
2021/06/27 09:08:27;;;;;;;1.67;1.37;;;;;;;23.55;52.94;101311.53;5096197;28;20436;-71
2021/06/27 09:10:54;;;;;;;1.87;1.50;;;;;;;23.62;52.99;101306.13;5096139;28;20444;-71
2021/06/27 09:13:38;;;;;;;1.50;1.17;;;;;;;23.70;52.69;101302.34;5095960;28;21041;-72
2021/06/27 09:16:19;;;;;;;1.07;0.97;;;;;;;23.70;52.82;101309.84;5096331;28;20435;-72
2021/06/27 09:18:46;;;;;;;2.43;1.37;;;;;;;23.77;54.03;101301.63;5096238;28;20432;-71
2021/06/27 09:21:14;;;;;;;1.53;1.30;;;;;;;23.81;53.23;101297.72;5096100;28;20429;-71
2021/06/27 09:23:42;;;;;;;1.60;1.30;;;;;;;23.81;52.26;101294.16;5096125;28;20441;-71
2021/06/27 09:26:09;;;;;;;1.27;1.17;;;;;;;23.85;53.73;101286.72;5096099;28;20440;-72
2021/06/27 09:28:46;;;;;;;1.43;1.20;;;;;;;23.97;52.52;101285.69;5095992;28;20444;-71
2021/06/27 09:31:35;;;;;;;1.83;1.47;;;;;;;24.03;54.42;101290.50;5095809;28;20444;-71
2021/06/27 09:34:02;;;;;;;2.07;1.33;;;;;;;24.04;52.69;101285.78;5095854;28;20472;-72
2021/06/27 09:36:31;;;;;;;1.60;1.37;;;;;;;24.10;51.86;101289.81;5095781;28;20464;-72
2021/06/27 09:38:57;;;;;;;2.30;1.60;;;;;;;24.26;51.88;101275.75;5095748;28;20452;-72
2021/06/27 09:41:28;;;;;;;3.20;1.30;;;;;;;24.32;53.14;101277.84;5095412;28;20463;-72
2021/06/27 09:43:56;;;;;;;2.07;1.33;;;;;;;24.25;52.61;101279.72;5095785;28;20542;-72
2021/06/27 09:46:32;;;;;;;3.10;1.30;;;;;;;24.19;51.74;101292.31;5095382;28;20855;-72
2021/06/27 09:49:02;;;;;;;1.23;1.07;;;;;;;24.28;50.90;101279.75;5095576;28;20531;-72
2021/06/27 09:51:31;;;;;;;1.93;1.50;;;;;;;24.35;50.88;101277.09;5095463;28;20460;-72
2021/06/27 09:53:59;;;;;;;1.70;1.33;;;;;;;24.41;50.96;101272.03;5095409;28;20485;-72
2021/06/27 09:56:26;;;;;;;1.60;1.40;;;;;;;24.50;51.12;101271.72;5095157;28;21029;-72
2021/06/27 09:58:58;;;;;;;2.67;1.67;;;;;;;24.51;51.77;101279.66;5095443;28;20548;-72
2021/06/27 10:01:26;;;;;;;1.53;1.10;;;;;;;24.71;50.14;101277.50;5095390;28;20496;-72
2021/06/27 10:03:55;;;;;;;2.47;1.70;;;;;;;24.73;51.76;101277.09;5095308;28;20436;-72
2021/06/27 10:06:22;;;;;;;1.20;0.90;;;;;;;24.84;49.39;101278.81;5095280;28;20523;-70
2021/06/27 10:08:51;;;;;;;2.13;1.47;;;;;;;24.90;48.80;101282.03;5095531;28;20441;-73
2021/06/27 10:11:19;;;;;;;1.77;1.30;;;;;;;24.88;49.60;101276.88;5094779;28;20488;-73
2021/06/27 10:13:47;;;;;;;1.13;1.03;;;;;;;24.94;48.98;101284.84;5095125;28;20476;-74
2021/06/27 10:16:23;;;;;;;2.10;1.10;;;;;;;24.91;48.37;101289.16;5095142;28;20436;-73
2021/06/27 10:18:50;;;;;;;1.13;0.80;;;;;;;25.05;47.40;101285.72;5094881;28;20461;-71
2021/06/27 10:21:17;;;;;;;2.07;1.20;;;;;;;25.06;47.69;101285.34;5094983;28;20463;-72
2021/06/27 10:23:44;;;;;;;1.20;1.10;;;;;;;25.16;47.55;101290.22;5094942;28;20447;-71
2021/06/27 10:26:12;;;;;;;2.50;1.37;;;;;;;25.26;47.95;101280.38;5094905;28;20445;-71
2021/06/27 10:28:39;;;;;;;1.93;1.50;;;;;;;25.28;49.31;101275.25;5094779;28;20436;-72
2021/06/27 10:31:06;;;;;;;1.40;1.30;;;;;;;25.29;50.46;101270.50;5092610;28;20452;-71
2021/06/27 10:33:33;;;;;;;1.10;1.00;;;;;;;25.28;48.85;101255.84;5070798;28;20492;-73
2021/06/27 10:36:01;;;;;;;1.37;1.00;;;;;;;25.34;47.94;101254.28;5074172;28;20935;-72
2021/06/27 10:38:30;;;;;;;1.40;1.10;;;;;;;25.30;46.89;101261.78;5074538;28;20452;-72
2021/06/27 10:40:59;;;;;;;1.37;1.27;;;;;;;25.45;47.37;101257.13;5074001;28;20954;-71
2021/06/27 10:44:00;;;;;;;1.90;1.17;;;;;;;25.50;46.53;101255.97;5074414;28;20456;-70
2021/06/27 10:46:40;;;;;;;1.70;1.20;;;;;;;25.67;48.47;101258.03;5074031;28;20437;-73
2021/06/27 10:49:09;;;;;;;1.27;1.07;;;;;;;25.81;48.83;101249.84;5074243;28;20437;-73
2021/06/27 10:52:00;;;;;;;1.43;1.17;;;;;;;26.00;48.39;101247.94;5080592;28;20457;-73
2021/06/27 10:54:27;;;;;;;1.40;1.10;;;;;;;26.13;47.11;101254.75;5073791;28;20998;-73
2021/06/27 10:56:56;;;;;;;1.50;1.30;;;;;;;26.30;46.90;101250.44;5073776;28;20947;-73
2021/06/27 10:59:59;;;;;;;1.07;0.80;;;;;;;26.52;46.79;101252.09;5074220;28;20434;-73
2021/06/27 11:02:42;;;;;;;1.17;1.07;;;;;;;26.72;46.72;101251.72;5073921;28;20457;-73
2021/06/27 11:05:43;;;;;;;2.10;1.30;;;;;;;26.59;44.66;101256.88;5073917;28;20422;-73
2021/06/27 11:08:13;;;;;;;1.60;1.47;;;;;;;26.80;45.78;101253.31;5073865;28;20926;-73
2021/06/27 11:10:40;;;;;;;1.27;1.13;;;;;;;27.03;45.74;101264.06;5073806;28;20445;-73
2021/06/27 11:13:17;;;;;;;1.67;1.23;;;;;;;27.16;45.11;101254.16;5073789;28;20492;-73
2021/06/27 11:16:16;;;;;;;1.43;1.20;;;;;;;27.52;46.08;101254.09;5073495;28;20956;-72
2021/06/27 11:18:45;;;;;;;1.90;1.17;;;;;;;27.54;44.10;101260.06;5073104;28;20919;-73
2021/06/27 11:21:25;;;;;;;1.47;1.33;;;;;;;27.59;44.78;101252.09;5072688;28;20934;-73
2021/06/27 11:24:00;;;;;;;1.77;1.67;;;;;;;27.88;42.63;101260.38;5072983;28;20425;-73
2021/06/27 11:26:50;;;;;;;2.57;1.50;;;;;;;27.52;42.09;101257.66;5073071;28;20509;-73
2021/06/27 11:29:47;;;;;;;1.63;1.23;;;;;;;27.86;44.09;101246.06;5072119;28;20903;-74